Atlas, Pennsylvania
Current Conditions -  °F | °C
As of 12:53 PM on Saturday 25 Oct 2014 (Local Time) from KSEG Reporting Station
Clear Clear  
Wind Chill: 66°   Ceiling: Unl
Heat Index: 66°   Visibility: 10mi
Dew Point: 44°   Wind: 6mph
Humidity: 45%   Direction: NA
Pressure: 29.81"   Gusts: NA
Location:  40.7952°N, 76.4365°W
Report Text: KSEG 251653Z AUTO VRB05KT 10SM CLR 19/07 A2981 RMK AO2 SLP094 T01890067
Loading
Personal Weather Stations






























Interactive Weather Map
Tropical Storm Tracking
New forecast layout! Learn more

10-Day Weather Forecast

Advertisements
Track Severe Weather on mobile